createdAt,value
2023-01-27T00:01:36.829Z,70.80
2023-01-27T00:04:05.149Z,73.00
2023-01-27T00:06:36.923Z,67.20
2023-01-27T00:09:05.214Z,67.50
2023-01-27T00:11:51.496Z,74.25
2023-01-27T00:14:19.991Z,63.88
2023-01-27T00:16:47.796Z,70.70
2023-01-27T00:19:20.132Z,65.25
2023-01-27T00:22:07.836Z,65.70
2023-01-27T00:24:36.558Z,62.50
2023-01-27T00:27:09.781Z,69.22
2023-01-27T00:29:41.173Z,67.13
2023-01-27T00:32:28.868Z,73.78
2023-01-27T00:34:57.391Z,68.07
2023-01-27T00:37:25.219Z,73.28
2023-01-27T00:39:53.614Z,75.43
2023-01-27T00:42:21.452Z,70.72
2023-01-27T00:45:09.695Z,69.53
2023-01-27T00:47:37.875Z,69.28
2023-01-27T00:50:06.664Z,68.55
2023-01-27T00:52:35.844Z,74.32
2023-01-27T00:55:04.128Z,69.75
2023-01-27T00:57:32.138Z,72.88
2023-01-27T01:00:00.630Z,69.88
2023-01-27T01:02:28.724Z,68.10
2023-01-27T01:04:57.496Z,75.15
2023-01-27T01:07:26.150Z,66.97
2023-01-27T01:09:54.598Z,74.38
2023-01-27T01:12:23.087Z,70.85
2023-01-27T01:14:51.714Z,70.60
2023-01-27T01:17:19.735Z,74.45
2023-01-27T01:19:47.925Z,69.78
2023-01-27T01:22:15.839Z,76.25
2023-01-27T01:24:44.153Z,74.25
2023-01-27T01:27:14.069Z,70.07
2023-01-27T01:29:42.719Z,68.97
2023-01-27T01:32:10.732Z,81.53
2023-01-27T01:34:38.955Z,67.88
2023-01-27T01:37:06.878Z,72.93
2023-01-27T01:39:36.312Z,65.20
2023-01-27T01:42:04.334Z,72.10
2023-01-27T01:44:33.219Z,69.72
2023-01-27T01:47:01.430Z,71.15
2023-01-27T01:49:40.066Z,76.13
2023-01-27T01:52:18.603Z,73.95
2023-01-27T01:54:52.431Z,73.28
2023-01-27T01:57:32.318Z,70.43
2023-01-27T02:00:07.590Z,73.68
2023-01-27T02:02:42.233Z,69.85
2023-01-27T02:05:16.391Z,69.47
2023-01-27T02:08:00.019Z,73.68
2023-01-27T02:10:28.665Z,68.80
2023-01-27T02:12:56.699Z,75.63
2023-01-27T02:15:25.650Z,73.00
2023-01-27T02:17:53.986Z,66.32
2023-01-27T02:20:37.004Z,67.35
2023-01-27T02:23:14.629Z,75.05
2023-01-27T02:25:49.663Z,73.60
2023-01-27T02:28:17.650Z,72.57
2023-01-27T02:30:46.137Z,69.88
2023-01-27T02:33:16.027Z,72.07
2023-01-27T02:36:07.713Z,69.50
2023-01-27T02:38:39.098Z,70.85
2023-01-27T02:41:16.198Z,69.05
2023-01-27T02:43:45.825Z,73.90
2023-01-27T02:46:13.996Z,76.40
2023-01-27T02:48:42.085Z,69.43
2023-01-27T02:51:11.349Z,70.03
2023-01-27T02:53:43.256Z,75.60
2023-01-27T02:56:12.521Z,71.55
2023-01-27T02:58:40.882Z,79.38
2023-01-27T03:01:26.225Z,69.75
2023-01-27T03:03:54.303Z,64.13
2023-01-27T03:06:22.434Z,71.15
2023-01-27T03:08:50.398Z,69.80
2023-01-27T03:11:37.113Z,68.50
2023-01-27T03:14:07.008Z,67.50
2023-01-27T03:16:53.673Z,75.05
2023-01-27T03:19:21.809Z,69.15
2023-01-27T03:21:51.413Z,75.53
2023-01-27T03:24:21.855Z,74.65
2023-01-27T03:26:50.656Z,76.97
2023-01-27T03:29:39.587Z,71.55
2023-01-27T03:32:08.437Z,72.82
2023-01-27T03:34:36.660Z,74.35
2023-01-27T03:37:28.194Z,78.72
2023-01-27T03:40:15.532Z,73.00
2023-01-27T03:43:02.128Z,76.22
2023-01-27T03:45:48.450Z,78.43
2023-01-27T03:48:19.037Z,76.35
2023-01-27T03:50:53.457Z,78.78
2023-01-27T03:53:22.345Z,80.03
2023-01-27T03:55:50.227Z,82.13
2023-01-27T03:58:22.975Z,76.43
2023-01-27T04:00:55.388Z,73.50
2023-01-27T04:03:44.026Z,74.28
2023-01-27T04:06:36.104Z,78.30
2023-01-27T04:09:06.006Z,83.53
2023-01-27T04:11:52.586Z,79.07
2023-01-27T04:14:31.615Z,76.05
2023-01-27T04:17:04.524Z,75.35
2023-01-27T04:19:33.708Z,80.32
2023-01-27T04:22:05.046Z,80.00
2023-01-27T04:24:33.825Z,76.82
2023-01-27T04:27:06.901Z,75.03
2023-01-27T04:29:37.782Z,70.70
2023-01-27T04:32:09.900Z,80.78
2023-01-27T04:34:39.597Z,79.63
2023-01-27T04:37:09.325Z,77.47
2023-01-27T04:39:37.723Z,78.85
2023-01-27T04:42:05.727Z,77.32
2023-01-27T04:44:33.975Z,82.70
2023-01-27T04:47:02.074Z,74.28
2023-01-27T04:49:30.400Z,77.57
2023-01-27T04:51:58.414Z,76.00
2023-01-27T04:54:26.881Z,76.07
2023-01-27T04:57:03.942Z,81.18
2023-01-27T04:59:32.423Z,79.80
2023-01-27T05:02:00.329Z,84.10
2023-01-27T05:04:28.699Z,81.10
2023-01-27T05:06:56.543Z,74.53
2023-01-27T05:09:25.115Z,75.20
2023-01-27T05:11:53.790Z,81.00
2023-01-27T05:14:24.840Z,77.20
2023-01-27T05:16:53.018Z,74.43
2023-01-27T05:19:21.476Z,69.93
2023-01-27T05:21:49.383Z,71.70
2023-01-27T05:24:17.621Z,69.63
2023-01-27T05:26:45.603Z,73.38
2023-01-27T05:29:13.838Z,87.55
2023-01-27T05:31:41.862Z,71.60
2023-01-27T05:34:10.288Z,79.97
2023-01-27T05:36:38.563Z,73.15
2023-01-27T05:39:08.903Z,77.10
2023-01-27T05:41:38.223Z,75.38
2023-01-27T05:44:07.156Z,69.18
2023-01-27T05:46:39.597Z,73.07
2023-01-27T05:49:08.164Z,69.60
2023-01-27T05:51:39.948Z,70.55
2023-01-27T05:54:09.571Z,77.53
2023-01-27T05:56:38.119Z,72.70
2023-01-27T05:59:07.022Z,71.80
2023-01-27T06:01:36.434Z,70.93
2023-01-27T06:04:05.664Z,73.32
2023-01-27T06:06:34.365Z,74.82
2023-01-27T06:09:03.429Z,69.05
2023-01-27T06:11:31.398Z,76.75
2023-01-27T06:14:01.102Z,67.25
2023-01-27T06:16:29.022Z,73.85
2023-01-27T06:19:12.875Z,64.78
2023-01-27T06:24:25.982Z,68.90
2023-01-27T06:26:54.111Z,77.13
2023-01-27T06:29:40.413Z,76.25
2023-01-27T06:32:15.199Z,78.72
2023-01-27T06:34:46.243Z,81.57
2023-01-27T06:37:14.241Z,79.70
2023-01-27T06:39:42.423Z,75.20
2023-01-27T06:42:10.272Z,78.97
2023-01-27T06:44:39.011Z,78.20
2023-01-27T06:47:06.911Z,70.65
2023-01-27T06:49:35.253Z,77.63
2023-01-27T06:52:03.250Z,79.32
2023-01-27T06:54:31.424Z,82.53
2023-01-27T06:56:59.422Z,85.25
2023-01-27T06:59:27.596Z,76.82
2023-01-27T07:01:55.944Z,83.38
2023-01-27T07:04:24.116Z,78.30
2023-01-27T07:06:52.110Z,80.93
2023-01-27T07:09:20.715Z,85.80
2023-01-27T07:11:48.664Z,76.90
2023-01-27T07:14:16.931Z,89.45
2023-01-27T07:16:44.853Z,88.10
2023-01-27T07:19:13.413Z,79.03
2023-01-27T07:21:41.544Z,82.75
2023-01-27T07:24:10.007Z,88.45
2023-01-27T07:26:38.847Z,84.97
2023-01-27T07:29:07.519Z,78.38
2023-01-27T07:31:37.891Z,79.70
2023-01-27T07:34:06.291Z,85.65
2023-01-27T07:36:35.127Z,87.22
2023-01-27T07:39:03.539Z,78.18
2023-01-27T07:41:31.520Z,92.55
2023-01-27T07:44:00.943Z,87.55
2023-01-27T07:46:29.033Z,88.00
2023-01-27T07:48:57.309Z,82.60
2023-01-27T07:51:25.203Z,85.85
2023-01-27T07:53:53.671Z,92.55
2023-01-27T07:56:21.473Z,91.22
2023-01-27T07:58:50.647Z,90.68
2023-01-27T08:01:18.646Z,94.47
2023-01-27T08:03:47.102Z,87.03
2023-01-27T08:06:15.010Z,92.72
2023-01-27T08:08:43.412Z,95.47
2023-01-27T08:11:13.874Z,92.40
2023-01-27T08:13:42.655Z,83.78
2023-01-27T08:16:15.586Z,86.68
2023-01-27T08:18:44.009Z,88.85
2023-01-27T08:21:13.400Z,90.07
2023-01-27T08:23:41.946Z,95.68
2023-01-27T08:26:09.943Z,86.07
2023-01-27T08:28:39.568Z,86.43
2023-01-27T08:31:11.159Z,88.72
2023-01-27T08:33:40.996Z,87.75
2023-01-27T08:36:14.481Z,86.05
2023-01-27T08:38:44.341Z,86.57
2023-01-27T08:41:15.198Z,81.63
2023-01-27T08:43:44.272Z,84.20
2023-01-27T08:46:12.875Z,88.68
2023-01-27T08:48:41.728Z,78.22
2023-01-27T08:51:12.161Z,87.22
2023-01-27T08:53:41.265Z,75.78
2023-01-27T08:56:12.836Z,77.82
2023-01-27T08:58:41.407Z,70.43
2023-01-27T09:01:10.087Z,73.78
2023-01-27T09:03:38.615Z,77.35
2023-01-27T09:06:10.057Z,70.18
2023-01-27T09:08:38.852Z,68.88
2023-01-27T09:11:15.282Z,72.32
2023-01-27T09:13:44.464Z,74.57
2023-01-27T09:16:12.327Z,78.50
2023-01-27T09:18:43.126Z,72.82
2023-01-27T09:21:11.944Z,70.68
2023-01-27T09:23:40.178Z,76.88
2023-01-27T09:26:08.776Z,76.28
2023-01-27T09:28:37.545Z,75.45
2023-01-27T09:31:05.786Z,82.40
2023-01-27T09:33:35.453Z,70.45
2023-01-27T09:36:10.846Z,68.75
2023-01-27T09:38:48.904Z,74.20
2023-01-27T09:41:23.058Z,73.43
2023-01-27T09:44:14.078Z,73.53
2023-01-27T09:47:08.949Z,73.63
2023-01-27T09:50:02.573Z,73.03
2023-01-27T09:52:47.561Z,69.80
2023-01-27T09:55:37.246Z,72.43
2023-01-27T09:58:43.337Z,71.60
2023-01-27T10:01:43.384Z,71.07
2023-01-27T10:04:35.018Z,70.65
2023-01-27T10:07:22.253Z,69.10
2023-01-27T10:10:12.310Z,69.28
2023-01-27T10:13:05.595Z,70.22
2023-01-27T10:15:44.144Z,68.13
2023-01-27T10:18:21.905Z,70.72
2023-01-27T10:21:11.130Z,63.90
2023-01-27T10:24:11.138Z,60.70
2023-01-27T10:26:50.777Z,63.03
2023-01-27T10:29:26.581Z,63.05
2023-01-27T10:32:13.199Z,69.35
2023-01-27T10:34:56.469Z,64.50
2023-01-27T10:37:24.612Z,60.67
2023-01-27T10:40:13.288Z,65.50
2023-01-27T10:43:08.912Z,65.75
2023-01-27T10:45:50.918Z,63.88
2023-01-27T10:48:40.609Z,59.60
2023-01-27T10:51:26.682Z,61.35
2023-01-27T10:54:02.944Z,63.65
2023-01-27T10:56:53.596Z,58.63
2023-01-27T10:59:36.010Z,62.78
2023-01-27T11:02:10.278Z,60.80
2023-01-27T11:04:46.790Z,67.70
2023-01-27T11:07:21.301Z,62.97
2023-01-27T11:09:58.348Z,67.88
2023-01-27T11:12:39.921Z,62.22
2023-01-27T11:15:35.630Z,62.92
2023-01-27T11:18:25.810Z,65.07
2023-01-27T11:20:59.843Z,62.05
2023-01-27T11:23:31.896Z,64.15
2023-01-27T11:26:28.376Z,60.55
2023-01-27T11:29:16.218Z,70.35
2023-01-27T11:31:57.304Z,62.17
2023-01-27T11:34:39.681Z,70.78
2023-01-27T11:37:44.289Z,66.30
2023-01-27T11:40:22.730Z,70.13
2023-01-27T11:42:51.976Z,65.07
2023-01-27T11:45:22.278Z,69.15
2023-01-27T11:47:58.943Z,57.65
2023-01-27T11:50:35.675Z,65.20
2023-01-27T11:53:05.633Z,66.05
2023-01-27T11:55:41.809Z,69.47
2023-01-27T11:58:24.450Z,69.88
2023-01-27T12:01:18.065Z,66.75
2023-01-27T12:04:37.063Z,68.68
2023-01-27T12:07:23.855Z,68.07
2023-01-27T12:09:52.227Z,74.72
2023-01-27T12:12:22.294Z,66.50
2023-01-27T12:14:55.866Z,72.20
2023-01-27T12:17:40.459Z,72.15
2023-01-27T12:20:19.171Z,70.00
2023-01-27T12:22:54.456Z,78.47
2023-01-27T12:25:29.348Z,73.85
2023-01-27T12:28:02.309Z,73.07
2023-01-27T12:30:40.267Z,69.85
2023-01-27T12:33:23.228Z,70.97
2023-01-27T12:35:53.628Z,71.05
2023-01-27T12:38:25.469Z,64.90
2023-01-27T12:41:03.187Z,73.93
2023-01-27T12:43:32.324Z,72.53
2023-01-27T12:46:05.469Z,74.47
2023-01-27T12:48:36.561Z,67.53
2023-01-27T12:51:14.723Z,75.15
2023-01-27T12:53:45.965Z,76.10
2023-01-27T12:56:24.173Z,76.93
2023-01-27T12:58:55.296Z,71.93
2023-01-27T13:01:33.172Z,70.78
2023-01-27T13:04:07.268Z,66.22
2023-01-27T13:07:05.580Z,68.97
2023-01-27T13:09:36.311Z,70.55
2023-01-27T13:12:21.832Z,71.30
2023-01-27T13:14:59.000Z,68.47
2023-01-27T13:17:35.979Z,67.22
2023-01-27T13:20:33.978Z,80.93
2023-01-27T13:23:08.341Z,73.55
2023-01-27T13:25:43.914Z,69.40
2023-01-27T13:28:18.915Z,70.13
2023-01-27T13:30:54.183Z,67.07
2023-01-27T13:33:36.186Z,71.05
2023-01-27T13:36:11.827Z,71.35
2023-01-27T13:38:57.064Z,70.95
2023-01-27T13:41:46.160Z,70.93
2023-01-27T13:44:39.864Z,67.82
2023-01-27T13:47:27.383Z,70.53
2023-01-27T13:50:01.381Z,69.57
2023-01-27T13:52:29.719Z,78.40
2023-01-27T13:54:58.192Z,75.60
2023-01-27T13:57:55.622Z,85.32
2023-01-27T14:00:36.114Z,76.13
2023-01-27T14:03:42.997Z,78.82
2023-01-27T14:06:17.880Z,74.05
2023-01-27T14:09:25.029Z,81.22
2023-01-27T14:12:05.257Z,79.37
2023-01-27T14:15:04.201Z,72.85
2023-01-27T14:17:53.229Z,75.78
2023-01-27T14:21:12.631Z,73.55
2023-01-27T14:23:46.784Z,71.30
2023-01-27T14:26:21.438Z,69.60
2023-01-27T14:29:04.942Z,68.97
2023-01-27T14:31:48.819Z,68.60
2023-01-27T14:34:26.302Z,70.50
2023-01-27T14:37:02.164Z,69.75
2023-01-27T14:39:39.362Z,73.18
2023-01-27T14:45:06.765Z,69.35
2023-01-27T14:47:52.339Z,75.97
2023-01-27T14:50:25.318Z,72.80
2023-01-27T14:53:14.635Z,73.90
2023-01-27T14:55:58.600Z,76.90
2023-01-27T14:58:40.260Z,79.55
2023-01-27T15:01:18.353Z,73.30
2023-01-27T15:04:17.440Z,69.32
2023-01-27T15:07:23.211Z,84.22
2023-01-27T15:10:29.996Z,75.63
2023-01-27T15:13:24.031Z,75.45
2023-01-27T15:16:24.515Z,78.50
2023-01-27T15:18:59.765Z,76.30
2023-01-27T15:21:41.110Z,75.32
2023-01-27T15:24:33.247Z,74.80
2023-01-27T15:27:02.488Z,83.72
2023-01-27T15:29:31.577Z,92.22
2023-01-27T15:32:16.000Z,83.88
2023-01-27T15:34:46.561Z,83.22
2023-01-27T15:37:34.032Z,70.35
2023-01-27T15:40:05.591Z,73.97
2023-01-27T15:42:56.103Z,67.95
2023-01-27T15:45:38.313Z,68.78
2023-01-27T15:48:12.437Z,68.10
2023-01-27T15:50:48.267Z,69.43
2023-01-27T15:53:24.107Z,71.15
2023-01-27T15:55:57.140Z,71.07
2023-01-27T15:58:59.399Z,79.40
2023-01-27T16:01:31.635Z,71.55
2023-01-27T16:04:12.876Z,73.07
2023-01-27T16:06:54.159Z,80.85
2023-01-27T16:09:46.505Z,72.53
2023-01-27T16:12:23.327Z,86.10
2023-01-27T16:15:32.634Z,80.88
2023-01-27T16:18:09.781Z,76.15
2023-01-27T16:20:55.321Z,74.82
2023-01-27T16:23:48.398Z,73.60
2023-01-27T16:26:36.830Z,77.15
2023-01-27T16:29:21.980Z,76.43
2023-01-27T16:31:58.975Z,73.45
2023-01-27T16:34:35.534Z,78.03
2023-01-27T16:37:25.115Z,69.75
2023-01-27T16:40:02.457Z,77.90
2023-01-27T16:42:54.787Z,74.22
2023-01-27T16:45:29.361Z,73.13
2023-01-27T16:48:06.877Z,74.05
2023-01-27T16:50:40.781Z,73.05
2023-01-27T16:53:27.206Z,74.13
2023-01-27T16:56:08.072Z,72.53
2023-01-27T16:58:46.156Z,72.53
2023-01-27T17:01:30.985Z,76.45
2023-01-27T17:04:17.967Z,85.38
2023-01-27T17:06:49.717Z,72.40
2023-01-27T17:09:25.554Z,71.75
2023-01-27T17:11:56.619Z,83.88
2023-01-27T17:14:44.109Z,75.22
2023-01-27T17:17:19.666Z,71.20
2023-01-27T17:20:05.806Z,70.47
2023-01-27T17:22:44.193Z,68.63
2023-01-27T17:25:23.894Z,78.28
2023-01-27T17:27:52.569Z,72.47
2023-01-27T17:30:25.510Z,69.03
2023-01-27T17:32:59.520Z,80.45
2023-01-27T17:35:33.758Z,84.18
2023-01-27T17:38:13.827Z,83.43
2023-01-27T17:40:45.624Z,70.57
2023-01-27T17:43:39.736Z,75.50
2023-01-27T17:46:24.144Z,78.60
2023-01-27T17:49:14.842Z,83.45
2023-01-27T17:51:56.240Z,85.07
2023-01-27T17:54:42.471Z,85.68
2023-01-27T17:57:36.413Z,87.43
2023-01-27T18:00:24.633Z,87.93
2023-01-27T18:03:03.628Z,85.70
2023-01-27T18:05:34.270Z,89.63
2023-01-27T18:08:05.396Z,96.30
2023-01-27T18:10:33.598Z,92.68
2023-01-27T18:13:18.436Z,86.65
2023-01-27T18:16:00.314Z,92.82
2023-01-27T18:18:31.123Z,99.18
2023-01-27T18:21:00.604Z,82.35
2023-01-27T18:23:32.899Z,86.50
2023-01-27T18:26:21.541Z,95.18
2023-01-27T18:28:54.189Z,91.57
2023-01-27T18:31:30.830Z,94.13
2023-01-27T18:34:21.481Z,86.70
2023-01-27T18:36:56.327Z,89.07
2023-01-27T18:39:28.020Z,99.20
2023-01-27T18:41:56.065Z,101.25
2023-01-27T18:44:27.582Z,94.53
2023-01-27T18:47:05.743Z,88.68
2023-01-27T18:49:34.382Z,89.28
2023-01-27T18:52:02.503Z,92.18
2023-01-27T18:54:31.079Z,94.47
2023-01-27T18:56:59.368Z,89.20
2023-01-27T18:59:28.100Z,83.97
2023-01-27T19:01:56.939Z,91.47
2023-01-27T19:04:26.311Z,89.40
2023-01-27T19:06:54.173Z,97.55
2023-01-27T19:09:23.573Z,96.30
2023-01-27T19:11:54.641Z,92.38
2023-01-27T19:14:25.502Z,95.22
2023-01-27T19:16:53.508Z,91.25
2023-01-27T19:19:22.251Z,83.22
2023-01-27T19:21:50.596Z,86.18
2023-01-27T19:24:18.998Z,90.03
2023-01-27T19:26:47.587Z,77.70
2023-01-27T19:29:15.816Z,80.82
2023-01-27T19:31:44.830Z,75.47
2023-01-27T19:34:13.715Z,80.80
2023-01-27T19:36:44.828Z,84.13
2023-01-27T19:39:22.547Z,76.63
2023-01-27T19:42:13.873Z,82.65
2023-01-27T19:44:44.054Z,76.35
2023-01-27T19:47:13.956Z,78.68
2023-01-27T19:49:43.789Z,73.47
2023-01-27T19:52:11.763Z,77.85
2023-01-27T19:54:40.223Z,73.63
2023-01-27T19:57:16.737Z,74.43
2023-01-27T19:59:46.663Z,64.32
2023-01-27T20:02:14.544Z,74.03
2023-01-27T20:04:42.977Z,76.90
2023-01-27T20:07:14.920Z,71.78
2023-01-27T20:09:44.243Z,74.28
2023-01-27T20:12:16.303Z,72.63
2023-01-27T20:14:44.608Z,68.72
2023-01-27T20:17:12.487Z,68.68
2023-01-27T20:19:42.741Z,71.90
2023-01-27T20:22:13.717Z,72.10
2023-01-27T20:24:43.465Z,69.13
2023-01-27T20:27:12.679Z,67.65
2023-01-27T20:29:42.147Z,78.57
2023-01-27T20:32:11.481Z,71.75
2023-01-27T20:34:41.084Z,69.70
2023-01-27T20:37:08.811Z,76.20
2023-01-27T20:39:38.008Z,73.80
2023-01-27T20:42:07.885Z,70.00
2023-01-27T20:44:36.575Z,77.32
2023-01-27T20:47:05.497Z,76.93
2023-01-27T20:49:36.072Z,71.68
2023-01-27T20:52:04.233Z,70.55
2023-01-27T20:54:34.587Z,76.78
2023-01-27T20:57:02.749Z,70.90
2023-01-27T20:59:31.473Z,71.97
2023-01-27T21:02:02.781Z,67.93
2023-01-27T21:04:31.569Z,69.43
2023-01-27T21:06:59.981Z,63.78
2023-01-27T21:09:28.322Z,69.10
2023-01-27T21:11:57.104Z,73.78
2023-01-27T21:14:25.647Z,77.40
2023-01-27T21:16:54.125Z,72.38
2023-01-27T21:19:41.902Z,76.50
2023-01-27T21:22:12.380Z,76.10
2023-01-27T21:24:42.483Z,76.35
2023-01-27T21:27:10.613Z,76.32
2023-01-27T21:29:41.043Z,74.80
2023-01-27T21:32:08.970Z,78.95
2023-01-27T21:34:37.176Z,80.97
2023-01-27T21:37:06.325Z,77.93
2023-01-27T21:39:34.664Z,76.68
2023-01-27T21:42:03.685Z,75.45
2023-01-27T21:44:50.796Z,70.72
2023-01-27T21:47:20.336Z,73.28
2023-01-27T21:50:04.644Z,73.93
2023-01-27T21:52:39.400Z,70.75
2023-01-27T21:55:15.770Z,68.07
2023-01-27T21:57:46.146Z,67.78
2023-01-27T22:00:17.252Z,70.45
2023-01-27T22:02:53.965Z,69.97
2023-01-27T22:05:22.953Z,65.45
2023-01-27T22:07:52.052Z,66.28
2023-01-27T22:10:55.889Z,62.67
2023-01-27T22:13:23.743Z,78.18
2023-01-27T22:15:51.927Z,67.68
2023-01-27T22:18:20.470Z,73.05
2023-01-27T22:20:49.573Z,72.57
2023-01-27T22:23:20.752Z,71.53
2023-01-27T22:25:51.477Z,75.10
2023-01-27T22:28:21.044Z,71.45
2023-01-27T22:30:49.549Z,67.85
2023-01-27T22:33:19.107Z,64.43
2023-01-27T22:35:47.433Z,72.68
2023-01-27T22:38:18.227Z,72.20
2023-01-27T22:40:56.021Z,71.57
2023-01-27T22:43:24.637Z,67.80
2023-01-27T22:45:53.467Z,69.80
2023-01-27T22:48:22.027Z,71.10
2023-01-27T22:50:50.245Z,68.32
2023-01-27T22:53:18.777Z,65.03
2023-01-27T22:55:46.990Z,72.40
2023-01-27T22:58:16.358Z,64.15
2023-01-27T23:00:44.615Z,60.00
2023-01-27T23:03:12.416Z,69.97
2023-01-27T23:05:41.708Z,66.97
2023-01-27T23:08:09.951Z,65.35
2023-01-27T23:10:38.539Z,65.25
2023-01-27T23:13:06.585Z,67.68
2023-01-27T23:15:36.249Z,74.03
2023-01-27T23:18:12.041Z,69.30
2023-01-27T23:20:43.622Z,69.60
2023-01-27T23:23:13.494Z,67.70
2023-01-27T23:25:46.411Z,67.10
2023-01-27T23:28:16.813Z,74.53
2023-01-27T23:30:46.834Z,70.22
2023-01-27T23:33:16.976Z,70.47
2023-01-27T23:35:46.433Z,78.78
2023-01-27T23:38:31.340Z,72.43
2023-01-27T23:41:08.108Z,68.30
2023-01-27T23:43:37.913Z,67.07
2023-01-27T23:46:06.460Z,68.07
2023-01-27T23:48:34.612Z,70.68
2023-01-27T23:51:10.087Z,69.13
2023-01-27T23:53:38.169Z,64.60
2023-01-27T23:56:06.914Z,66.07
2023-01-27T23:58:38.409Z,70.75
